sensor_id;sensor_type;location;lat;lon;timestamp;temperature;humidity
21778;DHT22;11050;52.222;20.916;2023-07-31T00:00:30;18.00;99.90
21778;DHT22;11050;52.222;20.916;2023-07-31T00:02:56;17.90;99.90
21778;DHT22;11050;52.222;20.916;2023-07-31T00:05:22;17.80;99.90
21778;DHT22;11050;52.222;20.916;2023-07-31T00:07:47;17.80;99.90
21778;DHT22;11050;52.222;20.916;2023-07-31T00:10:13;17.80;99.90
21778;DHT22;11050;52.222;20.916;2023-07-31T00:12:41;17.70;99.90
21778;DHT22;11050;52.222;20.916;2023-07-31T00:15:09;17.70;99.90
21778;DHT22;11050;52.222;20.916;2023-07-31T00:17:36;17.70;99.90
21778;DHT22;11050;52.222;20.916;2023-07-31T00:20:03;17.60;99.90
21778;DHT22;11050;52.222;20.916;2023-07-31T00:22:29;17.60;99.90
21778;DHT22;11050;52.222;20.916;2023-07-31T00:24:56;17.60;99.90
21778;DHT22;11050;52.222;20.916;2023-07-31T00:27:22;17.60;99.90
21778;DHT22;11050;52.222;20.916;2023-07-31T00:29:48;17.60;99.90
21778;DHT22;11050;52.222;20.916;2023-07-31T00:32:13;17.60;99.90
21778;DHT22;11050;52.222;20.916;2023-07-31T00:34:39;17.60;99.90
21778;DHT22;11050;52.222;20.916;2023-07-31T00:37:05;17.60;99.90
21778;DHT22;11050;52.222;20.916;2023-07-31T00:39:34;17.60;99.90
21778;DHT22;11050;52.222;20.916;2023-07-31T00:42:00;17.50;99.90
21778;DHT22;11050;52.222;20.916;2023-07-31T00:44:26;17.50;99.90
21778;DHT22;11050;52.222;20.916;2023-07-31T00:46:52;17.50;99.90
21778;DHT22;11050;52.222;20.916;2023-07-31T00:49:20;17.50;99.90
21778;DHT22;11050;52.222;20.916;2023-07-31T00:51:47;17.40;99.90
21778;DHT22;11050;52.222;20.916;2023-07-31T00:54:13;17.40;99.90
21778;DHT22;11050;52.222;20.916;2023-07-31T00:56:40;17.30;99.90
21778;DHT22;11050;52.222;20.916;2023-07-31T00:59:08;17.30;99.90
21778;DHT22;11050;52.222;20.916;2023-07-31T01:01:33;17.20;99.90
21778;DHT22;11050;52.222;20.916;2023-07-31T01:03:59;17.20;99.90
21778;DHT22;11050;52.222;20.916;2023-07-31T01:09:40;17.10;99.90
21778;DHT22;11050;52.222;20.916;2023-07-31T01:12:14;17.10;99.90
21778;DHT22;11050;52.222;20.916;2023-07-31T01:14:51;17.00;99.90
21778;DHT22;11050;52.222;20.916;2023-07-31T01:17:27;17.10;99.90
21778;DHT22;11050;52.222;20.916;2023-07-31T01:19:54;17.00;99.90
21778;DHT22;11050;52.222;20.916;2023-07-31T01:28:14;17.00;99.90
21778;DHT22;11050;52.222;20.916;2023-07-31T01:30:50;16.90;99.90
21778;DHT22;11050;52.222;20.916;2023-07-31T01:33:16;16.90;99.90
21778;DHT22;11050;52.222;20.916;2023-07-31T01:35:44;16.90;99.90
21778;DHT22;11050;52.222;20.916;2023-07-31T01:38:11;16.80;99.90
21778;DHT22;11050;52.222;20.916;2023-07-31T01:40:40;16.80;99.90
21778;DHT22;11050;52.222;20.916;2023-07-31T01:43:07;16.80;99.90
21778;DHT22;11050;52.222;20.916;2023-07-31T01:45:32;16.70;99.90
21778;DHT22;11050;52.222;20.916;2023-07-31T01:47:58;16.70;99.90
21778;DHT22;11050;52.222;20.916;2023-07-31T01:50:24;16.70;99.90
21778;DHT22;11050;52.222;20.916;2023-07-31T01:52:50;16.60;99.90
21778;DHT22;11050;52.222;20.916;2023-07-31T01:55:15;16.60;99.90
21778;DHT22;11050;52.222;20.916;2023-07-31T01:57:41;16.60;99.90
21778;DHT22;11050;52.222;20.916;2023-07-31T02:00:07;16.60;99.90
21778;DHT22;11050;52.222;20.916;2023-07-31T02:02:33;16.50;99.90
21778;DHT22;11050;52.222;20.916;2023-07-31T02:04:59;16.50;99.90
21778;DHT22;11050;52.222;20.916;2023-07-31T02:07:24;16.50;99.90
21778;DHT22;11050;52.222;20.916;2023-07-31T02:09:50;16.50;99.90
21778;DHT22;11050;52.222;20.916;2023-07-31T02:12:16;16.40;99.90
21778;DHT22;11050;52.222;20.916;2023-07-31T02:14:42;16.40;99.90
21778;DHT22;11050;52.222;20.916;2023-07-31T02:17:08;16.40;99.90
21778;DHT22;11050;52.222;20.916;2023-07-31T02:19:33;16.30;99.90
21778;DHT22;11050;52.222;20.916;2023-07-31T02:21:59;16.40;99.90
21778;DHT22;11050;52.222;20.916;2023-07-31T02:24:25;16.30;99.90
21778;DHT22;11050;52.222;20.916;2023-07-31T02:26:51;16.30;99.90
21778;DHT22;11050;52.222;20.916;2023-07-31T02:29:16;16.30;99.90
21778;DHT22;11050;52.222;20.916;2023-07-31T02:31:42;16.30;99.90
21778;DHT22;11050;52.222;20.916;2023-07-31T02:34:08;16.40;99.90
21778;DHT22;11050;52.222;20.916;2023-07-31T02:36:33;16.40;99.90
21778;DHT22;11050;52.222;20.916;2023-07-31T02:38:59;16.40;99.90
21778;DHT22;11050;52.222;20.916;2023-07-31T02:41:25;16.40;99.90
21778;DHT22;11050;52.222;20.916;2023-07-31T02:43:50;16.40;99.90
21778;DHT22;11050;52.222;20.916;2023-07-31T02:46:16;16.40;99.90
21778;DHT22;11050;52.222;20.916;2023-07-31T02:48:42;16.50;99.90
21778;DHT22;11050;52.222;20.916;2023-07-31T02:51:08;16.50;99.90
21778;DHT22;11050;52.222;20.916;2023-07-31T02:53:34;16.50;99.90
21778;DHT22;11050;52.222;20.916;2023-07-31T02:56:00;16.50;99.90
21778;DHT22;11050;52.222;20.916;2023-07-31T02:58:25;16.50;99.90
21778;DHT22;11050;52.222;20.916;2023-07-31T03:00:51;16.60;99.90
21778;DHT22;11050;52.222;20.916;2023-07-31T03:03:17;16.60;99.90
21778;DHT22;11050;52.222;20.916;2023-07-31T03:05:42;16.60;99.90
21778;DHT22;11050;52.222;20.916;2023-07-31T03:08:08;16.60;99.90
21778;DHT22;11050;52.222;20.916;2023-07-31T03:10:34;16.60;99.90
21778;DHT22;11050;52.222;20.916;2023-07-31T03:12:59;16.70;99.90
21778;DHT22;11050;52.222;20.916;2023-07-31T03:15:25;16.70;99.90
21778;DHT22;11050;52.222;20.916;2023-07-31T03:17:51;16.70;99.90
21778;DHT22;11050;52.222;20.916;2023-07-31T03:20:16;16.70;99.90
21778;DHT22;11050;52.222;20.916;2023-07-31T03:22:42;16.70;99.90
21778;DHT22;11050;52.222;20.916;2023-07-31T03:25:08;16.70;99.90
21778;DHT22;11050;52.222;20.916;2023-07-31T03:27:35;16.70;99.90
21778;DHT22;11050;52.222;20.916;2023-07-31T03:30:02;16.80;99.90
21778;DHT22;11050;52.222;20.916;2023-07-31T03:32:28;16.80;99.90
21778;DHT22;11050;52.222;20.916;2023-07-31T03:34:54;16.80;99.90
21778;DHT22;11050;52.222;20.916;2023-07-31T03:37:20;16.80;99.90
21778;DHT22;11050;52.222;20.916;2023-07-31T03:39:45;16.80;99.90
21778;DHT22;11050;52.222;20.916;2023-07-31T03:42:11;16.90;99.90
21778;DHT22;11050;52.222;20.916;2023-07-31T03:44:37;16.90;99.90
21778;DHT22;11050;52.222;20.916;2023-07-31T03:47:03;16.90;99.90
21778;DHT22;11050;52.222;20.916;2023-07-31T03:49:29;16.90;99.90
21778;DHT22;11050;52.222;20.916;2023-07-31T03:51:54;16.90;99.90
21778;DHT22;11050;52.222;20.916;2023-07-31T03:54:20;17.00;99.90
21778;DHT22;11050;52.222;20.916;2023-07-31T03:56:46;17.00;99.90
21778;DHT22;11050;52.222;20.916;2023-07-31T03:59:12;17.00;99.90
21778;DHT22;11050;52.222;20.916;2023-07-31T04:01:37;17.10;99.90
21778;DHT22;11050;52.222;20.916;2023-07-31T04:04:03;17.10;99.90
21778;DHT22;11050;52.222;20.916;2023-07-31T04:06:29;17.10;99.90
21778;DHT22;11050;52.222;20.916;2023-07-31T04:08:55;17.10;99.90
21778;DHT22;11050;52.222;20.916;2023-07-31T04:11:20;17.10;99.90
21778;DHT22;11050;52.222;20.916;2023-07-31T04:13:46;17.20;99.90
21778;DHT22;11050;52.222;20.916;2023-07-31T04:16:12;17.20;99.90
21778;DHT22;11050;52.222;20.916;2023-07-31T04:18:38;17.20;99.90
21778;DHT22;11050;52.222;20.916;2023-07-31T04:21:03;17.20;99.90
21778;DHT22;11050;52.222;20.916;2023-07-31T04:23:29;17.20;99.90
21778;DHT22;11050;52.222;20.916;2023-07-31T04:25:55;17.20;99.90
21778;DHT22;11050;52.222;20.916;2023-07-31T04:28:21;17.20;99.90
21778;DHT22;11050;52.222;20.916;2023-07-31T04:30:47;17.20;99.90
21778;DHT22;11050;52.222;20.916;2023-07-31T04:33:13;17.20;99.90
21778;DHT22;11050;52.222;20.916;2023-07-31T04:35:39;17.20;99.90
21778;DHT22;11050;52.222;20.916;2023-07-31T04:38:04;17.30;99.90
21778;DHT22;11050;52.222;20.916;2023-07-31T04:40:30;17.30;99.90
21778;DHT22;11050;52.222;20.916;2023-07-31T04:42:56;17.30;99.90
21778;DHT22;11050;52.222;20.916;2023-07-31T04:45:21;17.30;99.90
21778;DHT22;11050;52.222;20.916;2023-07-31T04:47:47;17.30;99.90
21778;DHT22;11050;52.222;20.916;2023-07-31T04:50:13;17.40;99.90
21778;DHT22;11050;52.222;20.916;2023-07-31T04:52:39;17.30;99.90
21778;DHT22;11050;52.222;20.916;2023-07-31T04:55:04;17.30;99.90
21778;DHT22;11050;52.222;20.916;2023-07-31T04:57:30;17.40;99.90
21778;DHT22;11050;52.222;20.916;2023-07-31T04:59:56;17.40;99.90
21778;DHT22;11050;52.222;20.916;2023-07-31T05:02:22;17.40;99.90
21778;DHT22;11050;52.222;20.916;2023-07-31T05:04:47;17.40;99.90
21778;DHT22;11050;52.222;20.916;2023-07-31T05:07:13;17.50;99.90
21778;DHT22;11050;52.222;20.916;2023-07-31T05:09:39;17.50;99.90
21778;DHT22;11050;52.222;20.916;2023-07-31T05:12:05;17.60;99.90
21778;DHT22;11050;52.222;20.916;2023-07-31T05:14:31;17.50;99.90
21778;DHT22;11050;52.222;20.916;2023-07-31T05:16:57;17.50;99.90
21778;DHT22;11050;52.222;20.916;2023-07-31T05:19:22;17.50;99.90
21778;DHT22;11050;52.222;20.916;2023-07-31T05:21:48;17.50;99.90
21778;DHT22;11050;52.222;20.916;2023-07-31T05:24:14;17.60;99.90
21778;DHT22;11050;52.222;20.916;2023-07-31T05:26:39;17.60;99.90
21778;DHT22;11050;52.222;20.916;2023-07-31T05:29:05;17.70;99.90
21778;DHT22;11050;52.222;20.916;2023-07-31T05:31:31;17.70;99.90
21778;DHT22;11050;52.222;20.916;2023-07-31T05:33:58;17.70;99.90
21778;DHT22;11050;52.222;20.916;2023-07-31T05:36:23;17.80;99.90
21778;DHT22;11050;52.222;20.916;2023-07-31T05:38:49;17.80;99.90
21778;DHT22;11050;52.222;20.916;2023-07-31T05:41:15;17.80;99.90
21778;DHT22;11050;52.222;20.916;2023-07-31T05:43:41;17.80;99.90
21778;DHT22;11050;52.222;20.916;2023-07-31T05:46:08;17.80;99.90
21778;DHT22;11050;52.222;20.916;2023-07-31T05:48:34;17.90;99.90
21778;DHT22;11050;52.222;20.916;2023-07-31T05:51:00;17.90;99.90
21778;DHT22;11050;52.222;20.916;2023-07-31T05:53:26;17.90;99.90
21778;DHT22;11050;52.222;20.916;2023-07-31T05:55:52;18.00;99.90
21778;DHT22;11050;52.222;20.916;2023-07-31T05:58:17;18.00;99.90
21778;DHT22;11050;52.222;20.916;2023-07-31T06:00:43;18.00;99.90
21778;DHT22;11050;52.222;20.916;2023-07-31T06:03:09;18.00;99.90
21778;DHT22;11050;52.222;20.916;2023-07-31T06:05:34;18.00;99.90
21778;DHT22;11050;52.222;20.916;2023-07-31T06:08:00;18.10;99.90
21778;DHT22;11050;52.222;20.916;2023-07-31T06:10:26;18.10;99.90
21778;DHT22;11050;52.222;20.916;2023-07-31T06:12:53;18.20;99.90
21778;DHT22;11050;52.222;20.916;2023-07-31T06:15:19;18.20;99.90
21778;DHT22;11050;52.222;20.916;2023-07-31T06:17:45;18.20;99.90
21778;DHT22;11050;52.222;20.916;2023-07-31T06:20:11;18.20;99.90
21778;DHT22;11050;52.222;20.916;2023-07-31T06:22:37;18.20;99.90
21778;DHT22;11050;52.222;20.916;2023-07-31T06:25:03;18.10;99.90
21778;DHT22;11050;52.222;20.916;2023-07-31T06:27:29;18.00;99.90
21778;DHT22;11050;52.222;20.916;2023-07-31T06:29:54;17.90;99.90
21778;DHT22;11050;52.222;20.916;2023-07-31T06:32:20;17.80;99.90
21778;DHT22;11050;52.222;20.916;2023-07-31T06:34:46;17.80;99.90
21778;DHT22;11050;52.222;20.916;2023-07-31T06:37:12;17.70;99.90
21778;DHT22;11050;52.222;20.916;2023-07-31T06:39:37;17.70;99.90
21778;DHT22;11050;52.222;20.916;2023-07-31T06:42:03;17.70;99.90
21778;DHT22;11050;52.222;20.916;2023-07-31T06:44:29;17.60;99.90
21778;DHT22;11050;52.222;20.916;2023-07-31T06:46:55;17.70;99.90
21778;DHT22;11050;52.222;20.916;2023-07-31T06:49:21;17.70;99.90
21778;DHT22;11050;52.222;20.916;2023-07-31T06:51:47;17.80;99.90
21778;DHT22;11050;52.222;20.916;2023-07-31T06:54:12;17.80;99.90
21778;DHT22;11050;52.222;20.916;2023-07-31T06:56:38;17.80;99.90
21778;DHT22;11050;52.222;20.916;2023-07-31T06:59:04;17.90;99.90
21778;DHT22;11050;52.222;20.916;2023-07-31T07:01:30;18.00;99.90
21778;DHT22;11050;52.222;20.916;2023-07-31T07:03:55;18.10;99.90
21778;DHT22;11050;52.222;20.916;2023-07-31T07:06:22;18.10;99.90
21778;DHT22;11050;52.222;20.916;2023-07-31T07:08:48;18.20;99.90
21778;DHT22;11050;52.222;20.916;2023-07-31T07:11:14;18.30;99.90
21778;DHT22;11050;52.222;20.916;2023-07-31T07:13:40;18.40;99.90
21778;DHT22;11050;52.222;20.916;2023-07-31T07:16:06;18.50;99.90
21778;DHT22;11050;52.222;20.916;2023-07-31T07:18:31;18.60;99.90
21778;DHT22;11050;52.222;20.916;2023-07-31T07:20:57;18.70;99.90
21778;DHT22;11050;52.222;20.916;2023-07-31T07:23:23;19.00;99.90
21778;DHT22;11050;52.222;20.916;2023-07-31T07:25:49;19.10;99.90
21778;DHT22;11050;52.222;20.916;2023-07-31T07:28:16;19.30;99.90
21778;DHT22;11050;52.222;20.916;2023-07-31T07:30:42;19.50;99.90
21778;DHT22;11050;52.222;20.916;2023-07-31T07:33:08;19.70;99.90
21778;DHT22;11050;52.222;20.916;2023-07-31T07:35:34;19.80;99.90
21778;DHT22;11050;52.222;20.916;2023-07-31T07:38:02;20.00;99.90
21778;DHT22;11050;52.222;20.916;2023-07-31T07:40:28;20.10;99.90
21778;DHT22;11050;52.222;20.916;2023-07-31T07:42:54;20.20;99.90
21778;DHT22;11050;52.222;20.916;2023-07-31T07:45:20;20.40;99.90
21778;DHT22;11050;52.222;20.916;2023-07-31T07:47:45;20.50;99.90
21778;DHT22;11050;52.222;20.916;2023-07-31T07:50:11;20.50;99.90
21778;DHT22;11050;52.222;20.916;2023-07-31T07:52:37;20.60;99.90
21778;DHT22;11050;52.222;20.916;2023-07-31T07:55:03;20.70;99.90
21778;DHT22;11050;52.222;20.916;2023-07-31T07:57:29;20.70;99.90
21778;DHT22;11050;52.222;20.916;2023-07-31T07:59:55;20.70;99.90
21778;DHT22;11050;52.222;20.916;2023-07-31T08:02:22;20.80;99.90
21778;DHT22;11050;52.222;20.916;2023-07-31T08:04:48;20.80;99.90
21778;DHT22;11050;52.222;20.916;2023-07-31T08:07:14;20.80;99.90
21778;DHT22;11050;52.222;20.916;2023-07-31T08:09:40;20.80;99.90
21778;DHT22;11050;52.222;20.916;2023-07-31T08:12:06;20.90;99.90
21778;DHT22;11050;52.222;20.916;2023-07-31T08:14:32;20.90;99.90
21778;DHT22;11050;52.222;20.916;2023-07-31T08:16:58;21.00;99.90
21778;DHT22;11050;52.222;20.916;2023-07-31T08:19:24;21.10;99.90
21778;DHT22;11050;52.222;20.916;2023-07-31T08:21:50;21.20;99.90
21778;DHT22;11050;52.222;20.916;2023-07-31T08:24:16;21.30;99.90
21778;DHT22;11050;52.222;20.916;2023-07-31T08:26:42;21.40;99.90
21778;DHT22;11050;52.222;20.916;2023-07-31T08:29:08;21.60;99.90
21778;DHT22;11050;52.222;20.916;2023-07-31T08:31:34;21.70;99.90
21778;DHT22;11050;52.222;20.916;2023-07-31T08:34:00;21.90;99.90
21778;DHT22;11050;52.222;20.916;2023-07-31T08:36:26;22.10;99.90
21778;DHT22;11050;52.222;20.916;2023-07-31T08:38:52;22.20;99.90
21778;DHT22;11050;52.222;20.916;2023-07-31T08:41:17;22.30;99.90
21778;DHT22;11050;52.222;20.916;2023-07-31T08:43:45;22.40;99.90
21778;DHT22;11050;52.222;20.916;2023-07-31T08:46:11;22.50;99.90
21778;DHT22;11050;52.222;20.916;2023-07-31T08:48:42;22.50;99.90
21778;DHT22;11050;52.222;20.916;2023-07-31T08:51:08;22.50;99.90
21778;DHT22;11050;52.222;20.916;2023-07-31T08:53:34;22.60;99.90
21778;DHT22;11050;52.222;20.916;2023-07-31T08:56:00;22.70;99.90
21778;DHT22;11050;52.222;20.916;2023-07-31T08:58:31;22.80;99.90
21778;DHT22;11050;52.222;20.916;2023-07-31T09:01:00;22.90;99.90
21778;DHT22;11050;52.222;20.916;2023-07-31T09:03:29;23.00;99.90
21778;DHT22;11050;52.222;20.916;2023-07-31T09:05:59;23.00;99.50
21778;DHT22;11050;52.222;20.916;2023-07-31T09:08:26;23.00;99.30
21778;DHT22;11050;52.222;20.916;2023-07-31T09:10:59;23.10;98.90
21778;DHT22;11050;52.222;20.916;2023-07-31T09:13:30;23.20;98.10
21778;DHT22;11050;52.222;20.916;2023-07-31T09:15:57;23.20;97.50
21778;DHT22;11050;52.222;20.916;2023-07-31T09:18:22;23.30;96.90
21778;DHT22;11050;52.222;20.916;2023-07-31T09:21:07;23.30;97.00
21778;DHT22;11050;52.222;20.916;2023-07-31T09:23:42;23.30;97.10
21778;DHT22;11050;52.222;20.916;2023-07-31T09:26:33;23.30;96.60
21778;DHT22;11050;52.222;20.916;2023-07-31T09:29:03;23.40;96.20
21778;DHT22;11050;52.222;20.916;2023-07-31T09:31:42;23.50;95.60
21778;DHT22;11050;52.222;20.916;2023-07-31T09:34:08;23.60;95.80
21778;DHT22;11050;52.222;20.916;2023-07-31T09:36:47;23.70;94.00
21778;DHT22;11050;52.222;20.916;2023-07-31T09:39:15;23.90;93.00
21778;DHT22;11050;52.222;20.916;2023-07-31T09:41:44;24.00;92.90
21778;DHT22;11050;52.222;20.916;2023-07-31T09:44:12;24.10;92.20
21778;DHT22;11050;52.222;20.916;2023-07-31T09:46:38;24.10;90.50
21778;DHT22;11050;52.222;20.916;2023-07-31T09:49:11;24.20;90.10
21778;DHT22;11050;52.222;20.916;2023-07-31T09:51:41;24.30;86.10
21778;DHT22;11050;52.222;20.916;2023-07-31T09:54:14;24.30;84.90
21778;DHT22;11050;52.222;20.916;2023-07-31T09:56:46;24.40;83.30
21778;DHT22;11050;52.222;20.916;2023-07-31T09:59:16;24.50;84.60
21778;DHT22;11050;52.222;20.916;2023-07-31T10:01:46;24.60;83.30
21778;DHT22;11050;52.222;20.916;2023-07-31T10:04:14;24.80;82.60
21778;DHT22;11050;52.222;20.916;2023-07-31T10:06:42;24.90;80.50
21778;DHT22;11050;52.222;20.916;2023-07-31T10:09:10;25.00;77.80
21778;DHT22;11050;52.222;20.916;2023-07-31T10:11:42;25.00;78.10
21778;DHT22;11050;52.222;20.916;2023-07-31T10:14:20;25.10;77.70
21778;DHT22;11050;52.222;20.916;2023-07-31T10:16:46;25.20;73.60
21778;DHT22;11050;52.222;20.916;2023-07-31T10:19:12;25.10;72.30
21778;DHT22;11050;52.222;20.916;2023-07-31T10:21:38;25.10;71.40
21778;DHT22;11050;52.222;20.916;2023-07-31T10:24:07;25.20;70.70
21778;DHT22;11050;52.222;20.916;2023-07-31T10:26:35;25.20;69.60
21778;DHT22;11050;52.222;20.916;2023-07-31T10:29:05;25.30;71.10
21778;DHT22;11050;52.222;20.916;2023-07-31T10:31:32;25.40;70.50
21778;DHT22;11050;52.222;20.916;2023-07-31T10:34:00;25.60;70.70
21778;DHT22;11050;52.222;20.916;2023-07-31T10:36:28;25.60;69.00
21778;DHT22;11050;52.222;20.916;2023-07-31T10:38:55;25.70;67.20
21778;DHT22;11050;52.222;20.916;2023-07-31T10:41:29;25.80;65.40
21778;DHT22;11050;52.222;20.916;2023-07-31T10:44:04;25.90;66.00
21778;DHT22;11050;52.222;20.916;2023-07-31T10:46:32;25.90;62.50
21778;DHT22;11050;52.222;20.916;2023-07-31T10:49:00;25.90;62.80
21778;DHT22;11050;52.222;20.916;2023-07-31T10:51:34;25.80;61.30
21778;DHT22;11050;52.222;20.916;2023-07-31T10:54:11;25.80;60.90
21778;DHT22;11050;52.222;20.916;2023-07-31T10:56:38;25.90;59.60
21778;DHT22;11050;52.222;20.916;2023-07-31T10:59:05;26.00;58.90
21778;DHT22;11050;52.222;20.916;2023-07-31T11:01:53;26.00;58.80
21778;DHT22;11050;52.222;20.916;2023-07-31T11:04:24;26.00;58.30
21778;DHT22;11050;52.222;20.916;2023-07-31T11:06:59;25.90;59.30
21778;DHT22;11050;52.222;20.916;2023-07-31T11:09:31;26.10;58.20
21778;DHT22;11050;52.222;20.916;2023-07-31T11:12:01;26.30;55.70
21778;DHT22;11050;52.222;20.916;2023-07-31T11:14:27;26.40;54.70
21778;DHT22;11050;52.222;20.916;2023-07-31T11:16:53;26.50;54.00
21778;DHT22;11050;52.222;20.916;2023-07-31T11:19:23;26.60;54.00
21778;DHT22;11050;52.222;20.916;2023-07-31T11:21:50;26.70;53.80
21778;DHT22;11050;52.222;20.916;2023-07-31T11:24:17;26.60;53.40
21778;DHT22;11050;52.222;20.916;2023-07-31T11:26:53;26.70;53.50
21778;DHT22;11050;52.222;20.916;2023-07-31T11:29:19;26.60;52.70
21778;DHT22;11050;52.222;20.916;2023-07-31T11:31:46;26.50;53.20
21778;DHT22;11050;52.222;20.916;2023-07-31T11:34:14;26.40;53.70
21778;DHT22;11050;52.222;20.916;2023-07-31T11:36:40;26.20;53.70
21778;DHT22;11050;52.222;20.916;2023-07-31T11:39:08;26.20;54.60
21778;DHT22;11050;52.222;20.916;2023-07-31T11:41:35;26.10;54.40
21778;DHT22;11050;52.222;20.916;2023-07-31T11:44:01;26.00;54.80
21778;DHT22;11050;52.222;20.916;2023-07-31T11:46:30;25.90;55.30
21778;DHT22;11050;52.222;20.916;2023-07-31T11:49:00;25.70;55.90
21778;DHT22;11050;52.222;20.916;2023-07-31T11:51:26;25.60;55.80
21778;DHT22;11050;52.222;20.916;2023-07-31T11:53:58;25.60;55.70
21778;DHT22;11050;52.222;20.916;2023-07-31T11:56:26;25.50;56.20
21778;DHT22;11050;52.222;20.916;2023-07-31T11:59:00;25.40;57.00
21778;DHT22;11050;52.222;20.916;2023-07-31T12:01:28;25.40;57.70
21778;DHT22;11050;52.222;20.916;2023-07-31T12:03:56;25.30;58.00
21778;DHT22;11050;52.222;20.916;2023-07-31T12:06:35;25.30;58.20
21778;DHT22;11050;52.222;20.916;2023-07-31T12:09:05;25.30;58.40
21778;DHT22;11050;52.222;20.916;2023-07-31T12:11:31;25.20;59.20
21778;DHT22;11050;52.222;20.916;2023-07-31T12:14:20;25.20;59.00
21778;DHT22;11050;52.222;20.916;2023-07-31T12:16:47;25.20;59.50
21778;DHT22;11050;52.222;20.916;2023-07-31T12:19:19;25.20;59.20
21778;DHT22;11050;52.222;20.916;2023-07-31T12:21:44;25.10;59.80
21778;DHT22;11050;52.222;20.916;2023-07-31T12:24:10;25.00;60.00
21778;DHT22;11050;52.222;20.916;2023-07-31T12:26:36;25.00;61.00
21778;DHT22;11050;52.222;20.916;2023-07-31T12:29:02;25.00;61.40
21778;DHT22;11050;52.222;20.916;2023-07-31T12:31:33;25.00;61.80
21778;DHT22;11050;52.222;20.916;2023-07-31T12:33:59;25.10;60.90
21778;DHT22;11050;52.222;20.916;2023-07-31T12:36:26;25.10;60.80
21778;DHT22;11050;52.222;20.916;2023-07-31T12:38:54;25.00;61.00
21778;DHT22;11050;52.222;20.916;2023-07-31T12:41:22;24.90;61.20
21778;DHT22;11050;52.222;20.916;2023-07-31T12:43:47;24.80;62.70
21778;DHT22;11050;52.222;20.916;2023-07-31T12:46:13;24.80;60.70
21778;DHT22;11050;52.222;20.916;2023-07-31T12:48:41;24.70;59.90
21778;DHT22;11050;52.222;20.916;2023-07-31T12:51:07;24.70;59.60
21778;DHT22;11050;52.222;20.916;2023-07-31T12:53:33;24.80;60.20
21778;DHT22;11050;52.222;20.916;2023-07-31T12:55:59;24.90;59.70
21778;DHT22;11050;52.222;20.916;2023-07-31T12:58:25;25.10;58.70
21778;DHT22;11050;52.222;20.916;2023-07-31T13:00:51;25.30;59.10
21778;DHT22;11050;52.222;20.916;2023-07-31T13:03:17;25.50;57.10
21778;DHT22;11050;52.222;20.916;2023-07-31T13:05:43;25.60;56.30
21778;DHT22;11050;52.222;20.916;2023-07-31T13:08:08;25.80;56.10
21778;DHT22;11050;52.222;20.916;2023-07-31T13:10:34;26.00;55.30
21778;DHT22;11050;52.222;20.916;2023-07-31T13:13:00;26.10;54.40
21778;DHT22;11050;52.222;20.916;2023-07-31T13:15:26;26.40;54.60
21778;DHT22;11050;52.222;20.916;2023-07-31T13:17:51;26.80;52.80
21778;DHT22;11050;52.222;20.916;2023-07-31T13:20:17;27.10;51.40
21778;DHT22;11050;52.222;20.916;2023-07-31T13:22:43;27.20;50.10
21778;DHT22;11050;52.222;20.916;2023-07-31T13:25:08;27.30;50.00
21778;DHT22;11050;52.222;20.916;2023-07-31T13:27:35;27.30;49.30
21778;DHT22;11050;52.222;20.916;2023-07-31T13:30:01;27.30;49.70
21778;DHT22;11050;52.222;20.916;2023-07-31T13:32:27;27.30;48.40
21778;DHT22;11050;52.222;20.916;2023-07-31T13:34:53;27.30;48.40
21778;DHT22;11050;52.222;20.916;2023-07-31T13:37:19;27.40;48.70
21778;DHT22;11050;52.222;20.916;2023-07-31T13:39:45;27.60;49.00
21778;DHT22;11050;52.222;20.916;2023-07-31T13:42:10;27.90;48.80
21778;DHT22;11050;52.222;20.916;2023-07-31T13:44:42;28.10;47.40
21778;DHT22;11050;52.222;20.916;2023-07-31T13:47:09;28.50;46.60
21778;DHT22;11050;52.222;20.916;2023-07-31T13:49:36;28.70;46.90
21778;DHT22;11050;52.222;20.916;2023-07-31T13:52:02;28.90;45.80
21778;DHT22;11050;52.222;20.916;2023-07-31T13:54:28;29.00;44.90
21778;DHT22;11050;52.222;20.916;2023-07-31T13:56:54;29.00;45.20
21778;DHT22;11050;52.222;20.916;2023-07-31T13:59:21;29.10;46.00
21778;DHT22;11050;52.222;20.916;2023-07-31T14:01:47;29.20;45.90
21778;DHT22;11050;52.222;20.916;2023-07-31T14:04:13;29.10;44.90
21778;DHT22;11050;52.222;20.916;2023-07-31T14:06:39;29.00;45.20
21778;DHT22;11050;52.222;20.916;2023-07-31T14:09:05;28.80;45.20
21778;DHT22;11050;52.222;20.916;2023-07-31T14:11:31;28.30;46.60
21778;DHT22;11050;52.222;20.916;2023-07-31T14:13:57;27.90;47.10
21778;DHT22;11050;52.222;20.916;2023-07-31T14:16:23;27.50;48.00
21778;DHT22;11050;52.222;20.916;2023-07-31T14:18:49;27.10;48.90
21778;DHT22;11050;52.222;20.916;2023-07-31T14:21:15;26.90;49.70
21778;DHT22;11050;52.222;20.916;2023-07-31T14:23:41;26.70;50.60
21778;DHT22;11050;52.222;20.916;2023-07-31T14:26:07;26.60;51.20
21778;DHT22;11050;52.222;20.916;2023-07-31T14:28:33;26.60;50.80
21778;DHT22;11050;52.222;20.916;2023-07-31T14:30:59;26.60;51.40
21778;DHT22;11050;52.222;20.916;2023-07-31T14:33:25;26.50;51.50
21778;DHT22;11050;52.222;20.916;2023-07-31T14:35:51;26.40;51.70
21778;DHT22;11050;52.222;20.916;2023-07-31T14:38:18;26.30;52.20
21778;DHT22;11050;52.222;20.916;2023-07-31T14:40:44;26.30;53.20
21778;DHT22;11050;52.222;20.916;2023-07-31T14:43:10;26.40;52.70
21778;DHT22;11050;52.222;20.916;2023-07-31T14:45:36;26.70;52.90
21778;DHT22;11050;52.222;20.916;2023-07-31T14:48:02;27.30;51.40
21778;DHT22;11050;52.222;20.916;2023-07-31T14:50:28;27.80;50.60
21778;DHT22;11050;52.222;20.916;2023-07-31T14:52:54;28.20;49.20
21778;DHT22;11050;52.222;20.916;2023-07-31T14:55:20;28.40;48.60
21778;DHT22;11050;52.222;20.916;2023-07-31T14:57:46;28.20;48.40
21778;DHT22;11050;52.222;20.916;2023-07-31T15:00:12;27.80;48.80
21778;DHT22;11050;52.222;20.916;2023-07-31T15:02:38;27.50;49.40
21778;DHT22;11050;52.222;20.916;2023-07-31T15:05:05;27.10;49.80
21778;DHT22;11050;52.222;20.916;2023-07-31T15:07:32;26.90;50.90
21778;DHT22;11050;52.222;20.916;2023-07-31T15:09:59;26.50;52.20
21778;DHT22;11050;52.222;20.916;2023-07-31T15:12:26;26.20;52.90
21778;DHT22;11050;52.222;20.916;2023-07-31T15:14:53;26.00;53.50
21778;DHT22;11050;52.222;20.916;2023-07-31T15:17:19;25.80;54.30
21778;DHT22;11050;52.222;20.916;2023-07-31T15:19:45;25.70;54.70
21778;DHT22;11050;52.222;20.916;2023-07-31T15:22:10;25.50;54.80